createdAt,value
2023-01-22T00:00:34.220Z,4.45
2023-01-22T00:37:45.992Z,3.85
2023-01-22T00:38:49.946Z,3.53
2023-01-22T00:39:52.255Z,4.20
2023-01-22T00:40:59.845Z,4.30
2023-01-22T00:42:02.373Z,4.72
2023-01-22T00:43:04.705Z,4.38
2023-01-22T00:44:07.150Z,4.57
2023-01-22T00:45:10.442Z,4.57
2023-01-22T00:46:16.548Z,4.30
2023-01-22T00:47:19.147Z,4.53
2023-01-22T00:48:21.529Z,4.35
2023-01-22T00:49:23.771Z,4.57
2023-01-22T00:50:26.107Z,4.40
2023-01-22T00:51:28.728Z,4.28
2023-01-22T00:52:31.110Z,4.65
2023-01-22T00:53:33.579Z,4.80
2023-01-22T00:54:35.921Z,4.85
2023-01-22T00:55:40.575Z,5.00
2023-01-22T00:56:42.917Z,4.50
2023-01-22T00:57:45.309Z,4.18
2023-01-22T00:58:47.806Z,4.63
2023-01-22T00:59:50.687Z,4.75
2023-01-22T01:00:53.227Z,4.55
2023-01-22T01:01:55.854Z,4.28
2023-01-22T01:03:16.859Z,4.38
2023-01-22T01:04:19.235Z,4.35
2023-01-22T01:05:21.538Z,4.75
2023-01-22T01:06:23.929Z,4.25
2023-01-22T01:07:26.300Z,4.20
2023-01-22T01:08:31.180Z,3.97
2023-01-22T01:09:33.443Z,4.40
2023-01-22T01:10:35.755Z,3.97
2023-01-22T01:11:38.095Z,4.55
2023-01-22T01:12:40.394Z,4.25
2023-01-22T01:13:43.373Z,4.18
2023-01-22T01:14:45.756Z,4.63
2023-01-22T01:15:48.217Z,4.40
2023-01-22T01:16:51.407Z,4.00
2023-01-22T01:17:53.805Z,4.40
2023-01-22T01:19:00.426Z,4.10
2023-01-22T01:20:03.319Z,3.97
2023-01-22T01:21:07.361Z,4.03
2023-01-22T01:22:09.982Z,4.03
2023-01-22T01:23:12.430Z,4.07
2023-01-22T01:24:15.121Z,3.72
2023-01-22T01:25:18.846Z,3.70
2023-01-22T01:26:21.558Z,4.15
2023-01-22T01:27:23.833Z,3.90
2023-01-22T01:28:28.665Z,3.85
2023-01-22T01:29:31.157Z,4.45
2023-01-22T01:30:33.962Z,3.75
2023-01-22T01:31:37.969Z,3.97
2023-01-22T01:32:40.555Z,3.58
2023-01-22T01:33:43.682Z,4.05
2023-01-22T01:34:47.863Z,4.10
2023-01-22T01:35:59.349Z,3.83
2023-01-22T01:37:01.701Z,4.07
2023-01-22T01:38:04.400Z,4.50
2023-01-22T01:39:06.848Z,4.00
2023-01-22T01:40:09.734Z,4.25
2023-01-22T01:41:14.851Z,4.28
2023-01-22T01:42:31.633Z,3.70
2023-01-22T01:43:34.440Z,4.20
2023-01-22T01:44:37.411Z,4.07
2023-01-22T01:45:40.127Z,4.03
2023-01-22T01:47:00.266Z,4.20
2023-01-22T01:48:19.013Z,4.45
2023-01-22T01:49:44.487Z,3.50
2023-01-22T01:50:53.891Z,3.83
2023-01-22T01:52:00.951Z,3.75
2023-01-22T01:53:04.367Z,4.20
2023-01-22T01:54:06.745Z,3.63
2023-01-22T01:55:10.706Z,4.30
2023-01-22T01:56:17.290Z,4.38
2023-01-22T01:57:24.179Z,3.97
2023-01-22T01:58:30.810Z,4.00
2023-01-22T01:59:35.091Z,4.05
2023-01-22T02:00:41.110Z,3.85
2023-01-22T02:01:48.687Z,3.97
2023-01-22T02:02:52.496Z,3.90
2023-01-22T02:03:55.480Z,4.60
2023-01-22T02:04:57.998Z,3.72
2023-01-22T02:06:00.411Z,4.13
2023-01-22T02:07:05.060Z,4.22
2023-01-22T02:08:09.478Z,4.07
2023-01-22T02:09:12.351Z,4.00
2023-01-22T02:10:14.821Z,3.95
2023-01-22T02:11:19.135Z,3.92
2023-01-22T02:12:22.102Z,3.70
2023-01-22T02:13:31.330Z,3.97
2023-01-22T02:14:39.752Z,3.70
2023-01-22T02:15:43.007Z,3.92
2023-01-22T02:16:45.613Z,4.03
2023-01-22T02:17:48.392Z,4.15
2023-01-22T02:18:51.018Z,3.58
2023-01-22T02:19:55.799Z,3.95
2023-01-22T02:21:01.030Z,4.28
2023-01-22T02:22:03.417Z,3.63
2023-01-22T02:23:06.721Z,4.22
2023-01-22T02:24:15.211Z,3.92
2023-01-22T02:25:18.300Z,3.90
2023-01-22T02:26:20.727Z,3.65
2023-01-22T02:27:23.228Z,3.70
2023-01-22T02:28:26.240Z,4.05
2023-01-22T02:29:30.720Z,3.53
2023-01-22T02:30:33.081Z,4.13
2023-01-22T02:31:37.206Z,4.00
2023-01-22T02:32:39.961Z,3.63
2023-01-22T02:33:42.506Z,4.00
2023-01-22T02:34:45.040Z,4.07
2023-01-22T02:35:47.448Z,3.95
2023-01-22T02:36:49.956Z,4.28
2023-01-22T02:37:52.321Z,3.90
2023-01-22T02:38:54.783Z,3.97
2023-01-22T02:39:57.207Z,3.97
2023-01-22T02:41:00.503Z,3.97
2023-01-22T02:42:05.627Z,3.90
2023-01-22T02:43:07.986Z,3.60
2023-01-22T02:44:10.383Z,4.07
2023-01-22T02:45:12.797Z,3.72
2023-01-22T02:46:15.113Z,3.88
2023-01-22T02:47:17.393Z,3.80
2023-01-22T02:48:19.804Z,3.63
2023-01-22T02:49:22.183Z,3.90
2023-01-22T02:50:25.661Z,3.90
2023-01-22T02:51:28.731Z,3.85
2023-01-22T02:52:33.066Z,4.25
2023-01-22T02:53:35.633Z,11.00
2023-01-22T02:54:38.051Z,27.38
2023-01-22T02:55:40.839Z,16.75
2023-01-22T02:56:44.619Z,18.08
2023-01-22T02:57:47.018Z,17.63
2023-01-22T02:58:52.003Z,14.82
2023-01-22T02:59:54.543Z,14.35
2023-01-22T03:00:56.981Z,13.65
2023-01-22T03:01:59.458Z,13.63
2023-01-22T03:03:07.712Z,11.43
2023-01-22T03:04:12.830Z,11.50
2023-01-22T03:05:16.834Z,9.98
2023-01-22T03:06:21.501Z,10.02
2023-01-22T03:07:24.010Z,9.77
2023-01-22T03:08:26.734Z,9.13
2023-01-22T03:09:29.839Z,9.10
2023-01-22T03:10:32.385Z,8.48
2023-01-22T03:11:37.846Z,7.57
2023-01-22T03:13:03.423Z,8.07
2023-01-22T03:14:25.442Z,7.38
2023-01-22T03:15:47.069Z,6.82
2023-01-22T03:17:08.136Z,7.38
2023-01-22T03:18:30.449Z,7.20
2023-01-22T03:19:52.477Z,21.42
2023-01-22T03:21:14.527Z,21.63
2023-01-22T03:22:20.530Z,31.20
2023-01-22T03:23:27.416Z,48.88
2023-01-22T03:24:29.889Z,41.72
2023-01-22T03:25:32.330Z,33.50
2023-01-22T03:26:36.292Z,29.75
2023-01-22T03:27:58.785Z,44.60
2023-01-22T03:29:01.197Z,40.83
2023-01-22T03:30:04.106Z,31.95
2023-01-22T03:31:09.995Z,36.85
2023-01-22T03:32:13.051Z,27.83
2023-01-22T03:33:16.229Z,25.63
2023-01-22T03:34:20.898Z,23.33
2023-01-22T03:35:23.343Z,21.90
2023-01-22T03:36:39.221Z,21.23
2023-01-22T03:37:41.569Z,20.17
2023-01-22T03:38:45.030Z,19.40
2023-01-22T03:39:51.470Z,19.08
2023-01-22T03:41:13.731Z,17.92
2023-01-22T03:42:18.490Z,16.83
2023-01-22T03:43:21.047Z,17.15
2023-01-22T03:44:23.876Z,16.80
2023-01-22T03:45:26.250Z,17.08
2023-01-22T03:46:33.091Z,16.63
2023-01-22T03:47:35.466Z,16.75
2023-01-22T03:48:50.911Z,16.58
2023-01-22T03:49:53.307Z,16.13
2023-01-22T03:50:56.036Z,14.98
2023-01-22T03:51:58.373Z,15.90
2023-01-22T03:53:04.004Z,15.40
2023-01-22T03:54:07.532Z,15.98
2023-01-22T03:55:11.087Z,15.77
2023-01-22T03:56:18.958Z,15.18
2023-01-22T03:57:21.343Z,11.75
2023-01-22T03:58:24.098Z,13.15
2023-01-22T03:59:27.642Z,45.78
2023-01-22T04:00:30.015Z,23.20
2023-01-22T04:01:32.986Z,16.52
2023-01-22T04:02:35.802Z,22.77
2023-01-22T04:04:50.425Z,17.02
2023-01-22T04:05:53.154Z,14.80
2023-01-22T04:06:55.421Z,13.35
2023-01-22T04:07:58.628Z,13.95
2023-01-22T04:09:04.049Z,12.65
2023-01-22T04:10:12.212Z,13.05
2023-01-22T04:11:15.015Z,13.05
2023-01-22T04:12:17.612Z,13.10
2023-01-22T04:13:20.013Z,13.27
2023-01-22T04:14:25.315Z,13.15
2023-01-22T04:15:33.679Z,12.50
2023-01-22T04:16:41.518Z,12.68
2023-01-22T04:17:58.584Z,12.50
2023-01-22T04:19:21.171Z,12.32
2023-01-22T04:20:48.368Z,13.52
2023-01-22T04:21:56.042Z,13.10
2023-01-22T04:22:58.563Z,12.88
2023-01-22T04:24:00.874Z,19.42
2023-01-22T04:25:03.715Z,39.28
2023-01-22T04:26:06.897Z,17.27
2023-01-22T04:27:09.500Z,16.65
2023-01-22T04:28:14.643Z,15.75
2023-01-22T04:29:17.305Z,13.50
2023-01-22T04:30:20.515Z,12.50
2023-01-22T04:31:26.671Z,11.75
2023-01-22T04:32:39.877Z,12.32
2023-01-22T04:33:57.897Z,12.63
2023-01-22T04:35:04.043Z,13.18
2023-01-22T04:36:22.247Z,12.40
2023-01-22T04:37:24.957Z,13.65
2023-01-22T04:38:28.100Z,13.25
2023-01-22T04:39:31.316Z,14.10
2023-01-22T04:40:34.017Z,13.32
2023-01-22T04:41:36.373Z,13.07
2023-01-22T04:42:38.976Z,12.95
2023-01-22T04:43:41.345Z,13.82
2023-01-22T04:44:43.647Z,13.60
2023-01-22T04:45:46.173Z,13.32
2023-01-22T04:46:48.620Z,12.55
2023-01-22T04:47:50.939Z,14.00
2023-01-22T04:48:55.859Z,13.02
2023-01-22T04:49:58.166Z,13.38
2023-01-22T04:51:00.654Z,13.05
2023-01-22T04:52:05.601Z,12.68
2023-01-22T04:53:09.824Z,12.43
2023-01-22T04:54:12.248Z,12.55
2023-01-22T04:55:15.090Z,11.88
2023-01-22T04:56:32.095Z,11.77
2023-01-22T04:57:34.627Z,11.65
2023-01-22T04:58:36.957Z,11.95
2023-01-22T04:59:40.134Z,12.43
2023-01-22T05:00:42.470Z,11.57
2023-01-22T05:01:45.302Z,12.00
2023-01-22T05:02:48.044Z,11.48
2023-01-22T05:03:50.900Z,12.20
2023-01-22T05:04:53.235Z,11.20
2023-01-22T05:05:55.527Z,11.52
2023-01-22T05:06:57.835Z,12.00
2023-01-22T05:08:00.921Z,11.75
2023-01-22T05:09:04.126Z,11.43
2023-01-22T05:10:16.673Z,11.23
2023-01-22T05:11:19.397Z,12.07
2023-01-22T05:12:27.258Z,11.70
2023-01-22T05:13:30.181Z,12.25
2023-01-22T05:14:32.548Z,12.15
2023-01-22T05:15:36.251Z,11.23
2023-01-22T05:16:43.613Z,11.43
2023-01-22T05:17:45.909Z,12.38
2023-01-22T05:18:48.220Z,12.10
2023-01-22T05:19:50.689Z,11.55
2023-01-22T05:20:56.207Z,11.25
2023-01-22T05:22:01.976Z,12.13
2023-01-22T05:23:06.944Z,11.23
2023-01-22T05:24:10.088Z,11.90
2023-01-22T05:25:14.132Z,11.52
2023-01-22T05:26:16.547Z,11.75
2023-01-22T05:27:33.476Z,18.25
2023-01-22T05:28:40.261Z,11.32
2023-01-22T05:29:46.582Z,10.07
2023-01-22T05:31:10.909Z,8.20
2023-01-22T05:32:26.990Z,9.27
2023-01-22T05:33:32.388Z,9.88
2023-01-22T05:34:34.720Z,9.57
2023-01-22T05:35:37.360Z,10.43
2023-01-22T05:36:40.770Z,10.05
2023-01-22T05:37:49.787Z,10.10
2023-01-22T05:38:52.927Z,11.40
2023-01-22T05:39:56.232Z,10.70
2023-01-22T05:40:58.947Z,11.30
2023-01-22T05:42:03.941Z,10.27
2023-01-22T05:43:06.732Z,10.30
2023-01-22T05:44:13.559Z,11.20
2023-01-22T05:45:16.882Z,11.35
2023-01-22T05:46:33.330Z,9.85
2023-01-22T05:48:04.979Z,11.02
2023-01-22T05:49:14.582Z,10.57
2023-01-22T05:50:17.506Z,10.73
2023-01-22T05:51:21.435Z,10.85
2023-01-22T05:52:23.787Z,10.77
2023-01-22T05:53:27.208Z,10.90
2023-01-22T05:54:30.917Z,10.57
2023-01-22T05:55:36.115Z,11.48
2023-01-22T05:56:39.558Z,10.35
2023-01-22T05:57:42.853Z,11.30
2023-01-22T05:58:46.197Z,10.95
2023-01-22T05:59:49.358Z,10.63
2023-01-22T06:00:53.175Z,9.85
2023-01-22T06:01:58.698Z,9.50
2023-01-22T06:03:01.736Z,10.38
2023-01-22T06:04:07.604Z,10.45
2023-01-22T06:05:10.077Z,10.02
2023-01-22T06:06:14.540Z,9.57
2023-01-22T06:07:18.678Z,23.88
2023-01-22T06:08:21.347Z,56.95
2023-01-22T06:09:26.592Z,56.35
2023-01-22T06:10:29.040Z,43.92
2023-01-22T06:11:31.343Z,29.10
2023-01-22T06:12:33.804Z,22.83
2023-01-22T06:13:36.840Z,18.38
2023-01-22T06:14:50.907Z,17.48
2023-01-22T06:15:53.729Z,17.75
2023-01-22T06:17:25.227Z,16.60
2023-01-22T06:18:32.010Z,18.13
2023-01-22T06:19:34.382Z,17.67
2023-01-22T06:20:36.895Z,16.48
2023-01-22T06:21:39.753Z,17.10
2023-01-22T06:22:42.380Z,15.77
2023-01-22T06:23:45.649Z,16.17
2023-01-22T06:24:49.044Z,15.90
2023-01-22T06:25:53.968Z,15.50
2023-01-22T06:26:56.346Z,15.70
2023-01-22T06:28:05.663Z,14.77
2023-01-22T06:29:08.815Z,14.77
2023-01-22T06:30:11.595Z,14.18
2023-01-22T06:31:14.094Z,15.02
2023-01-22T06:32:17.083Z,14.15
2023-01-22T06:33:19.473Z,15.13
2023-01-22T06:34:21.907Z,14.75
2023-01-22T06:35:24.663Z,14.80
2023-01-22T06:36:27.545Z,15.30
2023-01-22T06:37:30.325Z,14.70
2023-01-22T06:38:33.325Z,14.60
2023-01-22T06:39:38.271Z,13.95
2023-01-22T06:40:52.342Z,13.43
2023-01-22T06:41:54.899Z,13.55
2023-01-22T06:42:57.806Z,13.25
2023-01-22T06:44:00.194Z,13.10
2023-01-22T06:45:02.551Z,14.18
2023-01-22T06:46:06.507Z,12.27
2023-01-22T06:47:27.743Z,13.65
2023-01-22T06:48:31.208Z,12.98
2023-01-22T06:49:33.596Z,11.38
2023-01-22T06:50:36.059Z,11.45
2023-01-22T06:51:38.396Z,11.38
2023-01-22T06:52:40.803Z,12.25
2023-01-22T06:53:43.816Z,12.50
2023-01-22T06:54:46.123Z,12.60
2023-01-22T06:55:48.406Z,12.30
2023-01-22T06:56:50.840Z,12.73
2023-01-22T06:57:57.416Z,12.88
2023-01-22T06:58:59.730Z,12.80
2023-01-22T07:00:02.206Z,12.07
2023-01-22T07:01:05.953Z,13.02
2023-01-22T07:02:10.723Z,12.48
2023-01-22T07:03:15.402Z,12.27
2023-01-22T07:04:17.984Z,12.55
2023-01-22T07:05:22.354Z,12.50
2023-01-22T07:06:25.355Z,10.32
2023-01-22T07:07:27.745Z,9.98
2023-01-22T07:08:31.751Z,8.77
2023-01-22T07:09:34.043Z,9.75
2023-01-22T07:10:36.424Z,7.75
2023-01-22T07:11:38.710Z,9.00
2023-01-22T07:12:41.050Z,9.20
2023-01-22T07:13:43.512Z,9.80
2023-01-22T07:14:45.846Z,9.55
2023-01-22T07:15:48.625Z,9.90
2023-01-22T07:16:51.462Z,10.27
2023-01-22T07:17:54.619Z,9.38
2023-01-22T07:18:56.950Z,9.18
2023-01-22T07:19:59.319Z,10.75
2023-01-22T07:21:03.405Z,9.98
2023-01-22T07:22:05.837Z,10.13
2023-01-22T07:23:10.947Z,10.38
2023-01-22T07:24:13.288Z,10.68
2023-01-22T07:25:16.066Z,11.15
2023-01-22T07:26:18.613Z,10.07
2023-01-22T07:27:20.960Z,11.00
2023-01-22T07:28:23.710Z,10.35
2023-01-22T07:29:25.987Z,11.25
2023-01-22T07:30:28.877Z,11.05
2023-01-22T07:31:31.552Z,11.13
2023-01-22T07:32:33.909Z,11.10
2023-01-22T07:33:36.249Z,11.25
2023-01-22T07:34:38.601Z,11.02
2023-01-22T07:35:41.741Z,10.73
2023-01-22T07:36:45.727Z,10.60
2023-01-22T07:37:52.680Z,10.65
2023-01-22T07:38:55.038Z,10.57
2023-01-22T07:39:57.545Z,10.13
2023-01-22T07:41:11.445Z,10.73
2023-01-22T07:42:19.397Z,11.02
2023-01-22T07:43:21.687Z,10.80
2023-01-22T07:44:24.021Z,10.65
2023-01-22T07:45:26.493Z,10.88
2023-01-22T07:46:29.343Z,10.13
2023-01-22T07:47:31.678Z,9.75
2023-01-22T07:48:34.148Z,10.48
2023-01-22T07:49:36.456Z,8.55
2023-01-22T07:50:40.159Z,8.45
2023-01-22T07:51:42.428Z,9.32
2023-01-22T07:52:45.466Z,9.38
2023-01-22T07:53:47.881Z,9.48
2023-01-22T07:54:50.229Z,9.82
2023-01-22T07:55:52.551Z,10.63
2023-01-22T07:56:54.877Z,9.70
2023-01-22T07:57:59.547Z,8.80
2023-01-22T07:59:02.117Z,9.63
2023-01-22T08:00:05.112Z,9.27
2023-01-22T08:01:15.706Z,9.47
2023-01-22T08:02:18.146Z,8.85
2023-01-22T08:03:20.711Z,8.88
2023-01-22T08:04:24.204Z,9.43
2023-01-22T08:05:27.048Z,9.05
2023-01-22T08:06:29.545Z,9.50
2023-01-22T08:07:32.233Z,8.88
2023-01-22T08:08:35.143Z,9.20
2023-01-22T08:09:38.004Z,8.90
2023-01-22T08:10:40.862Z,8.60
2023-01-22T08:11:43.110Z,8.43
2023-01-22T08:12:46.652Z,9.38
2023-01-22T08:13:49.088Z,8.55
2023-01-22T08:14:51.392Z,8.85
2023-01-22T08:15:55.106Z,8.55
2023-01-22T08:16:57.579Z,8.50
2023-01-22T08:18:00.064Z,8.55
2023-01-22T08:19:02.733Z,9.43
2023-01-22T08:20:06.230Z,9.07
2023-01-22T08:21:08.686Z,13.60
2023-01-22T08:22:11.187Z,10.10
2023-01-22T08:23:13.719Z,9.55
2023-01-22T08:24:16.182Z,8.48
2023-01-22T08:25:18.771Z,8.75
2023-01-22T08:26:21.289Z,9.45
2023-01-22T08:27:23.796Z,8.70
2023-01-22T08:28:26.782Z,8.52
2023-01-22T08:29:29.319Z,8.73
2023-01-22T08:30:38.472Z,9.32
2023-01-22T08:31:47.636Z,9.73
2023-01-22T08:32:51.476Z,9.45
2023-01-22T08:33:53.773Z,9.48
2023-01-22T08:34:56.126Z,9.95
2023-01-22T08:35:58.523Z,10.57
2023-01-22T08:37:00.851Z,9.90
2023-01-22T08:38:03.158Z,8.88
2023-01-22T08:39:05.726Z,10.77
2023-01-22T08:40:10.010Z,9.75
2023-01-22T08:41:12.244Z,9.85
2023-01-22T08:42:14.530Z,9.80
2023-01-22T08:43:17.252Z,9.38
2023-01-22T08:44:19.597Z,9.63
2023-01-22T08:45:22.195Z,9.55
2023-01-22T08:46:24.518Z,9.57
2023-01-22T08:47:27.207Z,9.68
2023-01-22T08:48:29.539Z,9.35
2023-01-22T08:49:32.027Z,7.88
2023-01-22T08:50:34.379Z,7.20
2023-01-22T08:51:36.674Z,11.30
2023-01-22T08:52:39.126Z,10.75
2023-01-22T08:53:41.565Z,10.80
2023-01-22T08:54:43.975Z,15.43
2023-01-22T08:55:50.104Z,11.43
2023-01-22T08:56:52.571Z,13.77
2023-01-22T08:57:56.467Z,12.02
2023-01-22T08:59:00.718Z,11.23
2023-01-22T09:00:05.072Z,11.52
2023-01-22T09:01:07.675Z,9.80
2023-01-22T09:02:13.519Z,10.55
2023-01-22T09:03:16.017Z,9.73
2023-01-22T09:04:19.768Z,8.93
2023-01-22T09:05:22.092Z,9.23
2023-01-22T09:06:24.979Z,9.73
2023-01-22T09:07:27.283Z,9.73
2023-01-22T09:08:29.619Z,9.43
2023-01-22T09:09:31.944Z,9.75
2023-01-22T09:10:34.297Z,9.40
2023-01-22T09:11:36.678Z,9.55
2023-01-22T09:12:41.754Z,9.65
2023-01-22T09:13:44.311Z,9.82
2023-01-22T09:14:47.082Z,8.63
2023-01-22T09:15:49.584Z,9.43
2023-01-22T09:16:52.042Z,9.68
2023-01-22T09:17:54.466Z,9.82
2023-01-22T09:18:56.932Z,9.27
2023-01-22T09:20:01.639Z,8.88
2023-01-22T09:21:04.278Z,9.98
2023-01-22T09:22:07.517Z,10.38
2023-01-22T09:23:09.826Z,9.02
2023-01-22T09:24:12.145Z,8.90
2023-01-22T09:25:15.282Z,9.45
2023-01-22T09:26:27.150Z,9.40
2023-01-22T09:27:29.377Z,9.68
2023-01-22T09:28:31.643Z,8.75
2023-01-22T09:29:33.885Z,9.10
2023-01-22T09:30:39.236Z,9.55
2023-01-22T09:31:41.528Z,9.38
2023-01-22T09:32:43.782Z,8.95
2023-01-22T09:33:46.141Z,8.93
2023-01-22T09:34:48.494Z,8.55
2023-01-22T09:35:50.851Z,8.57
2023-01-22T09:36:53.164Z,8.43
2023-01-22T09:37:55.593Z,7.82
2023-01-22T09:38:57.912Z,8.25
2023-01-22T09:40:00.202Z,8.00
2023-01-22T09:41:12.559Z,8.73
2023-01-22T09:42:22.384Z,8.82
2023-01-22T09:43:49.301Z,8.60
2023-01-22T09:44:56.729Z,8.77
2023-01-22T09:46:04.021Z,8.30
2023-01-22T09:47:13.500Z,8.40
2023-01-22T09:48:18.341Z,7.75
2023-01-22T09:49:25.859Z,8.57
2023-01-22T09:50:32.267Z,8.10
2023-01-22T09:51:35.733Z,8.15
2023-01-22T09:52:39.609Z,8.27
2023-01-22T09:53:45.996Z,8.38
2023-01-22T09:54:49.152Z,7.97
2023-01-22T09:55:54.011Z,7.60
2023-01-22T09:56:59.433Z,8.68
2023-01-22T09:58:05.686Z,7.88
2023-01-22T09:59:19.391Z,8.05
2023-01-22T10:00:41.826Z,8.27
2023-01-22T10:01:52.317Z,7.93
2023-01-22T10:03:01.770Z,7.65
2023-01-22T10:04:13.994Z,7.70
2023-01-22T10:05:30.392Z,7.82
2023-01-22T10:06:33.116Z,8.60
2023-01-22T10:07:39.940Z,8.35
2023-01-22T10:09:10.477Z,8.10
2023-01-22T10:10:27.530Z,8.25
2023-01-22T10:11:29.985Z,8.82
2023-01-22T10:12:32.876Z,8.73
2023-01-22T10:13:37.614Z,8.93
2023-01-22T10:14:42.436Z,6.82
2023-01-22T10:15:45.057Z,7.15
2023-01-22T10:16:48.940Z,16.17
2023-01-22T10:17:54.522Z,17.20
2023-01-22T10:19:12.527Z,14.60
2023-01-22T10:20:18.806Z,16.23
2023-01-22T10:21:28.931Z,14.82
2023-01-22T10:22:31.357Z,10.05
2023-01-22T10:23:34.601Z,8.93
2023-01-22T10:24:37.014Z,8.68
2023-01-22T10:25:46.626Z,7.65
2023-01-22T10:26:54.126Z,7.40
2023-01-22T10:28:01.060Z,7.43
2023-01-22T10:29:09.639Z,7.55
2023-01-22T10:30:14.674Z,8.35
2023-01-22T10:31:28.266Z,8.23
2023-01-22T10:32:32.218Z,8.00
2023-01-22T10:33:44.324Z,8.57
2023-01-22T10:34:59.329Z,9.32
2023-01-22T10:36:04.331Z,8.70
2023-01-22T10:37:16.583Z,9.45
2023-01-22T10:38:30.772Z,9.05
2023-01-22T10:39:41.146Z,8.38
2023-01-22T10:40:43.371Z,8.15
2023-01-22T10:41:47.281Z,8.23
2023-01-22T10:43:03.022Z,8.02
2023-01-22T10:44:25.384Z,8.13
2023-01-22T10:45:27.895Z,7.80
2023-01-22T10:46:30.402Z,8.05
2023-01-22T10:47:32.769Z,7.90
2023-01-22T10:48:35.215Z,7.78
2023-01-22T10:49:37.633Z,7.47
2023-01-22T10:50:40.521Z,7.90
2023-01-22T10:51:49.190Z,8.30
2023-01-22T10:52:57.094Z,8.05
2023-01-22T10:54:00.153Z,7.50
2023-01-22T10:55:03.679Z,7.50
2023-01-22T10:56:12.453Z,7.60
2023-01-22T10:57:21.819Z,7.15
2023-01-22T10:58:29.574Z,8.13
2023-01-22T10:59:32.507Z,7.93
2023-01-22T11:00:50.253Z,7.53
2023-01-22T11:01:59.413Z,8.25
2023-01-22T11:03:13.152Z,8.07
2023-01-22T11:04:27.478Z,7.22
2023-01-22T11:05:36.569Z,8.85
2023-01-22T11:06:47.311Z,8.80
2023-01-22T11:07:57.601Z,9.85
2023-01-22T11:09:17.216Z,8.77
2023-01-22T11:10:25.226Z,11.40
2023-01-22T11:11:35.210Z,17.00
2023-01-22T11:12:59.538Z,16.45
2023-01-22T11:14:06.293Z,14.48
2023-01-22T11:15:43.277Z,11.88
2023-01-22T11:16:51.172Z,9.52
2023-01-22T11:17:56.924Z,9.00
2023-01-22T11:19:16.702Z,7.95
2023-01-22T11:20:47.786Z,7.90
2023-01-22T11:21:54.497Z,7.60
2023-01-22T11:23:38.354Z,8.27
2023-01-22T11:24:47.100Z,7.13
2023-01-22T11:26:09.609Z,7.60
2023-01-22T11:27:49.764Z,7.80
2023-01-22T11:29:12.558Z,8.00
2023-01-22T11:30:55.010Z,6.80
2023-01-22T11:32:34.970Z,6.85
2023-01-22T11:34:11.134Z,6.50
2023-01-22T11:35:54.189Z,5.85
2023-01-22T11:37:19.199Z,7.15
2023-01-22T11:38:53.309Z,6.82
2023-01-22T11:40:17.642Z,6.93
2023-01-22T11:41:37.289Z,6.63
2023-01-22T11:42:45.512Z,6.18
2023-01-22T11:43:58.663Z,6.43
2023-01-22T11:45:21.876Z,6.45
2023-01-22T11:47:01.754Z,6.32
2023-01-22T11:48:44.993Z,6.70
2023-01-22T11:49:59.080Z,5.50
2023-01-22T11:51:28.004Z,5.63
2023-01-22T11:52:39.488Z,8.30
2023-01-22T11:54:06.279Z,7.60
2023-01-22T11:55:28.824Z,7.20
2023-01-22T11:56:48.774Z,6.38
2023-01-22T11:58:12.030Z,6.78
2023-01-22T11:59:20.174Z,6.60
2023-01-22T12:00:38.709Z,7.38
2023-01-22T12:01:59.679Z,6.68
2023-01-22T12:03:23.784Z,6.78
2023-01-22T12:04:35.274Z,6.68
2023-01-22T12:06:12.905Z,6.82
2023-01-22T12:07:18.147Z,7.35
2023-01-22T12:08:40.562Z,6.70
2023-01-22T12:10:08.109Z,6.65
2023-01-22T12:11:46.288Z,6.50
2023-01-22T12:13:23.325Z,6.45
2023-01-22T12:14:45.806Z,6.78
2023-01-22T12:16:04.064Z,6.32
2023-01-22T12:17:48.676Z,6.10
2023-01-22T12:19:36.938Z,6.00
2023-01-22T12:21:03.793Z,6.72
2023-01-22T12:22:27.297Z,6.20
2023-01-22T12:23:52.553Z,5.80
2023-01-22T12:25:06.733Z,6.47
2023-01-22T12:26:23.122Z,5.80
2023-01-22T12:27:34.742Z,5.80
2023-01-22T12:28:56.125Z,6.03
2023-01-22T12:30:23.472Z,6.10
2023-01-22T12:31:31.863Z,6.15
2023-01-22T12:32:37.086Z,5.95
2023-01-22T12:33:41.860Z,6.28
2023-01-22T12:35:00.369Z,5.50
2023-01-22T12:36:04.395Z,5.45
2023-01-22T12:37:11.411Z,6.10
2023-01-22T12:38:29.132Z,5.85
2023-01-22T12:39:57.937Z,6.15
2023-01-22T12:41:12.034Z,6.13
2023-01-22T12:42:27.498Z,5.65
2023-01-22T12:43:55.190Z,5.32
2023-01-22T12:45:02.837Z,5.70
2023-01-22T12:46:35.490Z,5.35
2023-01-22T12:47:55.649Z,5.60
2023-01-22T12:49:10.870Z,5.97
2023-01-22T12:50:22.216Z,5.65
2023-01-22T12:52:34.949Z,5.30
2023-01-22T12:53:39.124Z,5.68
2023-01-22T12:54:41.422Z,5.65
2023-01-22T12:55:45.023Z,5.82
2023-01-22T12:56:51.973Z,6.15
2023-01-22T12:57:54.320Z,5.45
2023-01-22T12:58:58.460Z,6.07
2023-01-22T13:00:24.821Z,6.13
2023-01-22T13:01:35.636Z,5.82
2023-01-22T13:02:39.139Z,5.63
2023-01-22T13:03:42.110Z,5.53
2023-01-22T13:04:44.486Z,6.03
2023-01-22T13:05:47.016Z,5.18
2023-01-22T13:06:49.452Z,5.53
2023-01-22T13:08:05.220Z,4.82
2023-01-22T13:09:24.817Z,6.05
2023-01-22T13:10:30.116Z,5.35
2023-01-22T13:11:39.463Z,5.63
2023-01-22T13:12:49.303Z,15.93
2023-01-22T13:14:09.784Z,25.50
2023-01-22T13:15:28.325Z,18.35
2023-01-22T13:16:36.279Z,12.40
2023-01-22T13:17:41.200Z,11.95
2023-01-22T13:18:50.885Z,11.98
2023-01-22T13:19:54.710Z,10.00
2023-01-22T13:21:08.865Z,8.63
2023-01-22T13:22:21.677Z,9.27
2023-01-22T13:23:24.752Z,9.15
2023-01-22T13:24:27.083Z,8.77
2023-01-22T13:25:32.454Z,8.23
2023-01-22T13:26:37.342Z,7.78
2023-01-22T13:27:39.695Z,7.38
2023-01-22T13:28:50.863Z,7.47
2023-01-22T13:30:05.363Z,8.15
2023-01-22T13:31:15.306Z,8.05
2023-01-22T13:32:20.346Z,7.28
2023-01-22T13:33:23.238Z,7.20
2023-01-22T13:34:28.825Z,7.60
2023-01-22T13:35:31.357Z,7.35
2023-01-22T13:36:33.645Z,7.15
2023-01-22T13:37:35.932Z,7.13
2023-01-22T13:38:38.241Z,7.10
2023-01-22T13:39:40.675Z,7.18
2023-01-22T13:40:51.258Z,6.70
2023-01-22T13:41:57.253Z,6.90
2023-01-22T13:43:00.129Z,6.65
2023-01-22T13:44:04.290Z,6.82
2023-01-22T13:45:14.082Z,6.80
2023-01-22T13:46:16.586Z,6.43
2023-01-22T13:47:33.767Z,6.68
2023-01-22T13:48:36.080Z,7.15
2023-01-22T13:49:43.039Z,7.07
2023-01-22T13:51:00.604Z,6.38
2023-01-22T13:52:06.583Z,5.30
2023-01-22T13:53:18.013Z,20.95
2023-01-22T13:54:27.566Z,19.58
2023-01-22T13:55:30.397Z,15.10
2023-01-22T13:56:33.096Z,64.35
2023-01-22T13:57:35.454Z,30.63
2023-01-22T13:58:48.303Z,27.42
2023-01-22T13:59:59.534Z,23.23
2023-01-22T14:01:02.586Z,19.45
2023-01-22T14:02:27.393Z,15.82
2023-01-22T14:03:30.109Z,13.98
2023-01-22T14:04:35.331Z,12.63
2023-01-22T14:05:38.580Z,11.75
2023-01-22T14:06:49.464Z,12.77
2023-01-22T14:08:03.150Z,7.72
2023-01-22T14:09:05.447Z,6.20
2023-01-22T14:10:22.147Z,5.38
2023-01-22T14:11:24.617Z,4.53
2023-01-22T14:12:27.484Z,3.90
2023-01-22T14:13:39.814Z,3.15
2023-01-22T14:14:43.248Z,3.15
2023-01-22T14:15:59.577Z,2.72
2023-01-22T14:17:01.963Z,2.67
2023-01-22T14:18:08.540Z,2.70
2023-01-22T14:19:10.905Z,2.45
2023-01-22T14:20:13.815Z,3.15
2023-01-22T14:21:16.525Z,2.35
2023-01-22T14:22:18.924Z,2.47
2023-01-22T14:23:21.268Z,2.75
2023-01-22T14:24:23.891Z,2.53
2023-01-22T14:25:26.646Z,2.55
2023-01-22T14:26:29.766Z,2.60
2023-01-22T14:27:47.091Z,2.70
2023-01-22T14:28:49.533Z,2.20
2023-01-22T14:29:53.338Z,2.80
2023-01-22T14:30:56.018Z,2.47
2023-01-22T14:31:58.691Z,3.40
2023-01-22T14:33:01.263Z,3.65
2023-01-22T14:34:03.869Z,4.95
2023-01-22T14:35:06.452Z,5.25
2023-01-22T14:36:09.268Z,5.82
2023-01-22T14:37:18.077Z,5.55
2023-01-22T14:38:20.649Z,4.13
2023-01-22T14:39:22.988Z,15.35
2023-01-22T14:40:26.989Z,13.52
2023-01-22T14:41:29.295Z,27.98
2023-01-22T14:42:31.591Z,22.27
2023-01-22T14:43:35.478Z,20.38
2023-01-22T14:44:37.912Z,18.88
2023-01-22T14:45:41.157Z,15.55
2023-01-22T14:46:43.551Z,14.77
2023-01-22T14:47:51.148Z,12.45
2023-01-22T14:48:53.689Z,11.63
2023-01-22T14:49:56.086Z,9.90
2023-01-22T14:50:58.719Z,9.68
2023-01-22T14:52:01.458Z,9.70
2023-01-22T14:53:03.738Z,8.95
2023-01-22T14:54:06.094Z,9.25
2023-01-22T14:55:08.983Z,9.50
2023-01-22T14:56:11.351Z,9.68
2023-01-22T14:57:13.702Z,9.45
2023-01-22T14:58:18.932Z,9.43
2023-01-22T14:59:22.209Z,9.70
2023-01-22T15:00:24.635Z,9.50
2023-01-22T15:01:26.923Z,9.50
2023-01-22T15:02:29.319Z,9.02
2023-01-22T15:03:32.579Z,9.18
2023-01-22T15:04:34.959Z,9.20
2023-01-22T15:05:37.410Z,9.45
2023-01-22T15:06:39.756Z,9.77
2023-01-22T15:07:43.467Z,10.82
2023-01-22T15:08:46.186Z,18.70
2023-01-22T15:09:48.467Z,50.95
2023-01-22T15:10:50.765Z,75.43
2023-01-22T15:11:53.063Z,55.78
2023-01-22T15:12:55.344Z,53.47
2023-01-22T15:13:57.770Z,45.67
2023-01-22T15:15:00.194Z,42.88
2023-01-22T15:16:07.462Z,37.13